Time;durP1;ratioP1;P1;durP2;ratioP2;P2;SDS_P1;SDS_P2;PMS_P1;PMS_P2;Temp;Humidity;BMP_temperature;BMP_pressure;BME280_temperature;BME280_humidity;BME280_pressure;Samples;Min_cycle;Max_cycle;Signal;HPM_P1;HPM_P2
2022/04/13 00:02:11;;;;;;;4.93;4.35;;;;;;;;;;12308643;29;20047;-78
2022/04/13 00:08:13;;;;;;;4.65;4.25;;;;;;;;;;12309091;29;20508;-78
2022/04/13 00:14:15;;;;;;;5.18;4.78;;;;;;;;;;12290712;29;20035;-78
2022/04/13 00:20:16;;;;;;;5.25;4.85;;;;;;;;;;12301218;28;20047;-78
2022/04/13 00:26:18;;;;;;;4.00;3.70;;;;;;;;;;12290375;29;20031;-79
2022/04/13 00:32:20;;;;;;;5.20;4.78;;;;;;;;;;12307505;29;20039;-78
2022/04/13 00:38:22;;;;;;;4.95;4.55;;;;;;;;;;12289036;29;20101;-78
2022/04/13 00:44:23;;;;;;;4.43;4.13;;;;;;;;;;12289356;29;20078;-78
2022/04/13 00:50:25;;;;;;;5.03;4.63;;;;;;;;;;12306209;29;20397;-78
2022/04/13 00:56:29;;;;;;;5.32;4.93;;;;;;;;;;12288729;29;20046;-78
2022/04/13 01:02:31;;;;;;;6.60;5.80;;;;;;;;;;12288289;28;20397;-78
2022/04/13 01:08:33;;;;;;;6.63;6.03;;;;;;;;;;12313139;28;20027;-78
2022/04/13 01:14:35;;;;;;;3.87;3.57;;;;;;;;;;12292881;29;20046;-78
2022/04/13 01:20:42;;;;;;;4.78;4.35;;;;;;;;;;12287754;29;20054;-78
2022/04/13 01:26:44;;;;;;;5.68;5.18;;;;;;;;;;12287684;29;20039;-78
2022/04/13 01:32:46;;;;;;;7.90;7.20;;;;;;;;;;12303873;28;20039;-78
2022/04/13 01:38:47;;;;;;;6.30;5.75;;;;;;;;;;12303150;28;20054;-78
2022/04/13 01:44:49;;;;;;;6.65;5.93;;;;;;;;;;12303787;29;20031;-78
2022/04/13 01:50:51;;;;;;;5.97;5.47;;;;;;;;;;12314073;28;20062;-78
2022/04/13 01:56:53;;;;;;;5.05;4.65;;;;;;;;;;12303021;29;20031;-78
2022/04/13 02:02:54;;;;;;;4.82;4.43;;;;;;;;;;12302799;29;20051;-78
2022/04/13 02:08:56;;;;;;;4.20;3.90;;;;;;;;;;12302353;29;20039;-79
2022/04/13 02:14:58;;;;;;;4.50;4.20;;;;;;;;;;12285290;29;20038;-78
2022/04/13 02:20:59;;;;;;;5.57;5.05;;;;;;;;;;12284638;29;20050;-78
2022/04/13 02:27:02;;;;;;;7.32;6.68;;;;;;;;;;12301854;29;20042;-80
2022/04/13 02:33:03;;;;;;;6.57;6.07;;;;;;;;;;12284520;29;20346;-78
2022/04/13 02:39:05;;;;;;;6.82;6.22;;;;;;;;;;12283887;29;20325;-78
2022/04/13 02:45:07;;;;;;;7.00;6.40;;;;;;;;;;12284930;29;20039;-78
2022/04/13 02:51:09;;;;;;;7.82;7.03;;;;;;;;;;12311724;28;20036;-78
2022/04/13 02:57:11;;;;;;;6.55;5.95;;;;;;;;;;12286338;29;20036;-77
2022/04/13 03:03:13;;;;;;;6.63;6.13;;;;;;;;;;12302374;29;20063;-77
2022/04/13 03:09:14;;;;;;;6.97;6.28;;;;;;;;;;12286478;29;20039;-78
2022/04/13 03:15:18;;;;;;;6.22;5.72;;;;;;;;;;12313502;28;20489;-79
2022/04/13 03:21:19;;;;;;;7.25;6.65;;;;;;;;;;12284420;29;20051;-78
2022/04/13 03:27:21;;;;;;;7.22;6.63;;;;;;;;;;12300156;29;20035;-78
2022/04/13 03:33:23;;;;;;;6.40;5.85;;;;;;;;;;12300432;29;20043;-79
2022/04/13 03:39:25;;;;;;;5.63;5.10;;;;;;;;;;12282781;29;20062;-79
2022/04/13 03:45:27;;;;;;;5.63;5.13;;;;;;;;;;12299955;29;20473;-79
2022/04/13 03:51:29;;;;;;;9.15;8.40;;;;;;;;;;12285108;29;20031;-79
2022/04/13 03:57:31;;;;;;;7.28;6.57;;;;;;;;;;12309926;28;20377;-79
2022/04/13 04:03:34;;;;;;;8.57;7.60;;;;;;;;;;12309169;29;20058;-79
2022/04/13 04:09:35;;;;;;;9.75;8.88;;;;;;;;;;12291017;29;20046;-78
2022/04/13 04:15:37;;;;;;;9.02;8.25;;;;;;;;;;12307943;29;20038;-78
2022/04/13 04:21:39;;;;;;;8.85;8.15;;;;;;;;;;12308128;29;20047;-79
2022/04/13 04:27:40;;;;;;;7.95;7.30;;;;;;;;;;12308399;29;20389;-78
2022/04/13 04:33:42;;;;;;;6.57;6.07;;;;;;;;;;12289991;29;20040;-78
2022/04/13 04:39:44;;;;;;;7.93;7.22;;;;;;;;;;12290314;29;20047;-79
2022/04/13 04:45:46;;;;;;;7.28;6.68;;;;;;;;;;12293147;29;20049;-79
2022/04/13 04:51:48;;;;;;;5.68;5.28;;;;;;;;;;12289179;29;20031;-77
2022/04/13 04:57:50;;;;;;;6.88;6.28;;;;;;;;;;12305787;29;20039;-78
2022/04/13 05:03:52;;;;;;;6.95;6.32;;;;;;;;;;12288491;29;20058;-78
2022/04/13 05:09:54;;;;;;;7.20;6.60;;;;;;;;;;12287156;28;20512;-78
2022/04/13 05:15:56;;;;;;;7.35;6.85;;;;;;;;;;12304829;29;20396;-78
2022/04/13 05:21:57;;;;;;;6.90;6.30;;;;;;;;;;12305132;29;20042;-77
2022/04/13 05:27:59;;;;;;;5.95;5.55;;;;;;;;;;12300922;29;20039;-77
2022/04/13 05:34:01;;;;;;;8.38;7.57;;;;;;;;;;12303250;29;20484;-78
2022/04/13 05:40:03;;;;;;;11.20;10.25;;;;;;;;;;12303677;29;20514;-76
2022/04/13 05:46:05;;;;;;;9.50;8.68;;;;;;;;;;12314025;28;20488;-77
2022/04/13 05:52:06;;;;;;;7.85;6.93;;;;;;;;;;12280866;29;20505;-77
2022/04/13 05:58:08;;;;;;;7.20;6.60;;;;;;;;;;12279449;28;20032;-78
2022/04/13 06:04:10;;;;;;;7.30;6.70;;;;;;;;;;12266279;28;20071;-76
2022/04/13 06:10:12;;;;;;;7.27;6.67;;;;;;;;;;12262888;28;20024;-77
2022/04/13 06:16:14;;;;;;;7.30;6.60;;;;;;;;;;12270966;28;20043;-80
2022/04/13 06:22:16;;;;;;;9.77;8.77;;;;;;;;;;12277794;28;20485;-76
2022/04/13 06:28:17;;;;;;;10.02;8.77;;;;;;;;;;12279858;28;20042;-76
2022/04/13 06:34:19;;;;;;;11.90;10.90;;;;;;;;;;12274520;29;20043;-77
2022/04/13 06:40:21;;;;;;;15.75;13.60;;;;;;;;;;12267721;28;20055;-77
2022/04/13 06:46:23;;;;;;;10.90;9.80;;;;;;;;;;12273554;28;20046;-76
2022/04/13 06:52:24;;;;;;;8.55;7.60;;;;;;;;;;12278113;28;20401;-76
2022/04/13 06:58:26;;;;;;;10.27;9.25;;;;;;;;;;12275247;28;20304;-76
2022/04/13 07:04:28;;;;;;;11.65;10.45;;;;;;;;;;12271373;28;20979;-76
2022/04/13 07:10:30;;;;;;;9.30;8.07;;;;;;;;;;12270359;29;20042;-76
2022/04/13 07:16:32;;;;;;;11.20;9.02;;;;;;;;;;12309548;28;20378;-77
2022/04/13 07:22:45;;;;;;;10.75;9.65;;;;;;;;;;12296381;28;20055;-77
2022/04/13 07:28:46;;;;;;;7.55;6.72;;;;;;;;;;12274356;28;20036;-77
2022/04/13 07:34:48;;;;;;;5.13;4.63;;;;;;;;;;12268603;28;20050;-77
2022/04/13 07:40:50;;;;;;;7.20;6.60;;;;;;;;;;12266237;29;20128;-76
2022/04/13 07:46:51;;;;;;;8.32;6.35;;;;;;;;;;12292281;28;20051;-76
2022/04/13 07:52:53;;;;;;;8.07;7.38;;;;;;;;;;12292910;28;20023;-76
2022/04/13 07:58:55;;;;;;;8.85;7.68;;;;;;;;;;12270514;29;20046;-76
2022/04/13 08:04:56;;;;;;;8.43;7.47;;;;;;;;;;12284500;28;20476;-76
2022/04/13 08:10:58;;;;;;;7.05;6.22;;;;;;;;;;12267603;29;20035;-75
2022/04/13 08:17:03;;;;;;;7.30;5.82;;;;;;;;;;12265944;29;20496;-76
2022/04/13 08:23:05;;;;;;;4.68;4.22;;;;;;;;;;12287525;28;20050;-76
2022/04/13 08:29:07;;;;;;;4.80;4.40;;;;;;;;;;12280299;29;20035;-76
2022/04/13 08:35:10;;;;;;;5.15;4.13;;;;;;;;;;12297188;28;20387;-77
2022/04/13 08:41:14;;;;;;;5.00;4.10;;;;;;;;;;12265812;28;20055;-77
2022/04/13 08:47:20;;;;;;;5.45;4.95;;;;;;;;;;12272922;28;20047;-77
2022/04/13 08:53:25;;;;;;;5.93;5.00;;;;;;;;;;12280275;29;20032;-76
2022/04/13 08:59:30;;;;;;;7.60;5.63;;;;;;;;;;12277264;28;20051;-76
2022/04/13 09:05:35;;;;;;;5.72;5.15;;;;;;;;;;12286300;29;20058;-77
2022/04/13 09:11:39;;;;;;;4.75;4.30;;;;;;;;;;12283661;29;20434;-78
2022/04/13 09:17:41;;;;;;;5.90;4.60;;;;;;;;;;12267465;29;20035;-77
2022/04/13 09:23:43;;;;;;;5.60;4.30;;;;;;;;;;12264771;28;20500;-76
2022/04/13 09:29:45;;;;;;;2.63;2.43;;;;;;;;;;12270508;28;20043;-77
2022/04/13 09:35:47;;;;;;;4.43;3.20;;;;;;;;;;12273734;28;20047;-77
2022/04/13 09:41:51;;;;;;;1.57;1.40;;;;;;;;;;12267626;28;20047;-78
2022/04/13 09:47:53;;;;;;;3.20;2.40;;;;;;;;;;12278148;28;20541;-77
2022/04/13 09:53:55;;;;;;;2.63;2.07;;;;;;;;;;12277439;28;20046;-77
2022/04/13 09:59:57;;;;;;;2.38;2.03;;;;;;;;;;12264238;29;20054;-78
2022/04/13 10:05:59;;;;;;;2.60;1.52;;;;;;;;;;12265910;29;20035;-78
2022/04/13 10:12:03;;;;;;;2.03;1.75;;;;;;;;;;12290301;29;20032;-78
2022/04/13 10:18:05;;;;;;;1.65;1.20;;;;;;;;;;12262566;29;20031;-77
2022/04/13 10:24:08;;;;;;;2.95;2.08;;;;;;;;;;12298829;28;20043;-81
2022/04/13 10:30:10;;;;;;;2.60;2.33;;;;;;;;;;12261236;29;20031;-81
2022/04/13 10:36:11;;;;;;;2.47;2.28;;;;;;;;;;12267241;29;20392;-82
2022/04/13 10:42:14;;;;;;;2.47;1.80;;;;;;;;;;12299153;28;20043;-80
2022/04/13 10:48:22;;;;;;;3.10;2.08;;;;;;;;;;12290303;29;20043;-81
2022/04/13 10:54:25;;;;;;;3.45;2.42;;;;;;;;;;12276777;29;20039;-82
2022/04/13 11:00:28;;;;;;;2.40;1.50;;;;;;;;;;12282286;28;20031;-79
2022/04/13 11:06:30;;;;;;;1.90;1.70;;;;;;;;;;12295493;28;20032;-80
2022/04/13 11:12:32;;;;;;;;;;;;;;;;;;12290779;28;20484;-78
2022/04/13 11:18:33;;;;;;;2.33;1.63;;;;;;;;;;12282061;29;19926;-77
2022/04/13 11:25:02;;;;;;;2.37;1.70;;;;;;;;;;12297874;28;20051;-76
2022/04/13 11:31:10;;;;;;;2.15;1.92;;;;;;;;;;12306883;28;20051;-76
2022/04/13 11:37:12;;;;;;;2.58;1.67;;;;;;;;;;12305337;28;20393;-76
2022/04/13 11:43:14;;;;;;;3.17;2.53;;;;;;;;;;12308386;28;20066;-76
2022/04/13 11:49:16;;;;;;;2.30;1.80;;;;;;;;;;12291918;28;20608;-76
2022/04/13 11:55:22;;;;;;;2.53;2.10;;;;;;;;;;12309233;28;20039;-78
2022/04/13 12:01:25;;;;;;;2.10;1.90;;;;;;;;;;12308203;28;20043;-79
2022/04/13 12:07:28;;;;;;;3.22;1.92;;;;;;;;;;12309197;28;20491;-76
2022/04/13 12:13:34;;;;;;;2.20;1.98;;;;;;;;;;12308525;28;20039;-76
2022/04/13 12:19:41;;;;;;;4.32;2.38;;;;;;;;;;12306907;28;20500;-76
2022/04/13 12:25:43;;;;;;;3.15;2.80;;;;;;;;;;12307316;28;20039;-78
2022/04/13 12:31:46;;;;;;;1.70;1.50;;;;;;;;;;12307122;28;20050;-74
2022/04/13 12:37:52;;;;;;;0.75;0.70;;;;;;;;;;12289944;28;20040;-75
2022/04/13 12:43:59;;;;;;;2.70;1.70;;;;;;;;;;12288215;29;20074;-75
2022/04/13 12:50:02;;;;;;;1.60;1.35;;;;;;;;;;12319297;28;20038;-76
2022/04/13 12:56:03;;;;;;;;;;;;;;;;;;12306103;28;20032;-76
2022/04/13 13:02:05;;;;;;;1.43;1.33;;;;;;;;;;12305730;28;19922;-76
2022/04/13 13:08:07;;;;;;;2.25;1.60;;;;;;;;;;12288636;28;20043;-75
2022/04/13 13:14:13;;;;;;;2.65;2.10;;;;;;;;;;12288241;29;20043;-75
2022/04/13 13:20:15;;;;;;;2.13;1.90;;;;;;;;;;12289840;28;20055;-76
2022/04/13 13:26:24;;;;;;;2.63;2.42;;;;;;;;;;12304102;28;20035;-76
2022/04/13 13:32:27;;;;;;;1.90;1.60;;;;;;;;;;12303011;28;20031;-75
2022/04/13 13:38:32;;;;;;;3.17;2.53;;;;;;;;;;12286754;28;20054;-75
2022/04/13 13:44:33;;;;;;;3.95;2.03;;;;;;;;;;12286618;28;20062;-75
2022/04/13 13:50:36;;;;;;;3.15;2.20;;;;;;;;;;12303215;28;20045;-75
2022/04/13 13:56:38;;;;;;;2.20;2.00;;;;;;;;;;12299068;28;20026;-75
2022/04/13 14:02:39;;;;;;;2.17;1.80;;;;;;;;;;12306235;28;20488;-75
2022/04/13 14:08:41;;;;;;;2.85;1.98;;;;;;;;;;12302982;28;20031;-75
2022/04/13 14:14:43;;;;;;;1.63;1.17;;;;;;;;;;12302160;28;20024;-75
2022/04/13 14:20:46;;;;;;;1.60;1.30;;;;;;;;;;12302796;28;20127;-75
2022/04/13 14:26:48;;;;;;;2.28;1.38;;;;;;;;;;12284783;28;20495;-75
2022/04/13 14:32:51;;;;;;;2.17;1.98;;;;;;;;;;12302034;28;20499;-75
2022/04/13 14:38:52;;;;;;;2.78;2.03;;;;;;;;;;12283761;29;20047;-75
2022/04/13 14:44:54;;;;;;;1.58;1.15;;;;;;;;;;12284087;28;20047;-75
2022/04/13 14:50:57;;;;;;;2.38;2.03;;;;;;;;;;12303436;28;20031;-75
2022/04/13 14:56:59;;;;;;;2.85;1.65;;;;;;;;;;12300824;28;20051;-78
2022/04/13 15:03:01;;;;;;;1.30;1.20;;;;;;;;;;12311110;28;20047;-75
2022/04/13 15:09:06;;;;;;;1.63;1.10;;;;;;;;;;12283797;29;20031;-75
2022/04/13 15:15:08;;;;;;;2.28;1.05;;;;;;;;;;12283083;28;20046;-75
2022/04/13 15:21:10;;;;;;;0.93;0.90;;;;;;;;;;12283019;28;20050;-75
2022/04/13 15:27:12;;;;;;;1.02;0.90;;;;;;;;;;12300226;28;20039;-75
2022/04/13 15:33:14;;;;;;;0.90;0.80;;;;;;;;;;12299954;28;20039;-75
2022/04/13 15:39:15;;;;;;;1.30;1.10;;;;;;;;;;12300356;28;20416;-75
2022/04/13 15:45:17;;;;;;;1.77;1.20;;;;;;;;;;12298496;28;20046;-76
2022/04/13 15:51:19;;;;;;;0.77;0.75;;;;;;;;;;12282891;28;20032;-75
2022/04/13 15:57:21;;;;;;;1.35;0.88;;;;;;;;;;12306202;28;20042;-76
2022/04/13 16:03:23;;;;;;;0.45;0.45;;;;;;;;;;12322124;28;20027;-75
2022/04/13 16:09:25;;;;;;;0.80;0.80;;;;;;;;;;12308417;28;20039;-72
2022/04/13 16:15:26;;;;;;;1.03;0.87;;;;;;;;;;12300933;28;20043;-73
2022/04/13 16:21:28;;;;;;;1.45;0.80;;;;;;;;;;12307196;28;20310;-74
2022/04/13 16:27:30;;;;;;;1.50;1.10;;;;;;;;;;12306837;28;20039;-75
2022/04/13 16:33:32;;;;;;;1.07;0.80;;;;;;;;;;12306975;28;20385;-75
2022/04/13 16:39:33;;;;;;;2.33;1.00;;;;;;;;;;12289407;28;20051;-76
2022/04/13 16:45:35;;;;;;;0.85;0.65;;;;;;;;;;12306030;28;20559;-76
2022/04/13 16:51:37;;;;;;;1.40;0.60;;;;;;;;;;12305873;28;20031;-77
2022/04/13 16:57:40;;;;;;;4.13;0.80;;;;;;;;;;12288885;28;20038;-75
2022/04/13 17:03:42;;;;;;;1.30;0.73;;;;;;;;;;12288476;29;20066;-76
2022/04/13 17:09:44;;;;;;;1.50;0.90;;;;;;;;;;12286896;28;20380;-76
2022/04/13 17:15:46;;;;;;;2.00;0.93;;;;;;;;;;12304757;28;20045;-75
2022/04/13 17:21:47;;;;;;;1.07;0.97;;;;;;;;;;12305065;28;20043;-77
2022/04/13 17:27:49;;;;;;;1.30;0.57;;;;;;;;;;12304762;28;20473;-75
2022/04/13 17:33:51;;;;;;;0.50;0.50;;;;;;;;;;12307249;28;20366;-75
2022/04/13 17:39:53;;;;;;;1.40;0.70;;;;;;;;;;12286335;28;20054;-77
2022/04/13 17:45:55;;;;;;;0.73;0.50;;;;;;;;;;12286259;28;20040;-78
2022/04/13 17:51:56;;;;;;;0.40;0.40;;;;;;;;;;12302931;28;20050;-75
2022/04/13 17:57:58;;;;;;;0.40;0.40;;;;;;;;;;12284531;28;20043;-78
2022/04/13 18:04:00;;;;;;;0.53;0.50;;;;;;;;;;12316838;28;20047;-82
2022/04/13 18:10:03;;;;;;;1.25;0.50;;;;;;;;;;12302135;28;20497;-77
2022/04/13 18:16:05;;;;;;;0.90;0.68;;;;;;;;;;12285219;28;20031;-77
2022/04/13 18:22:07;;;;;;;0.50;0.50;;;;;;;;;;12284529;28;20043;-77
2022/04/13 18:28:12;;;;;;;1.17;0.67;;;;;;;;;;12318906;28;20046;-77
2022/04/13 18:34:14;;;;;;;0.80;0.80;;;;;;;;;;12302251;28;20043;-77
2022/04/13 18:40:16;;;;;;;1.15;1.13;;;;;;;;;;12301352;28;20067;-78
2022/04/13 18:46:18;;;;;;;1.50;1.40;;;;;;;;;;12300035;28;20035;-75
2022/04/13 18:52:21;;;;;;;1.55;1.40;;;;;;;;;;12283699;28;20038;-74
2022/04/13 18:58:25;;;;;;;1.23;0.93;;;;;;;;;;12284026;29;20108;-79
2022/04/13 19:04:27;;;;;;;2.38;1.52;;;;;;;;;;12283816;28;20047;-77
2022/04/13 19:10:29;;;;;;;2.07;1.50;;;;;;;;;;12300803;28;20035;-79
2022/04/13 19:16:33;;;;;;;3.03;2.75;;;;;;;;;;12300147;28;20031;-79
2022/04/13 19:22:35;;;;;;;3.47;3.17;;;;;;;;;;12300174;28;20515;-78
2022/04/13 19:28:37;;;;;;;3.58;3.22;;;;;;;;;;12301168;28;20039;-77
2022/04/13 19:34:39;;;;;;;4.40;3.50;;;;;;;;;;12309741;28;20042;-77
2022/04/13 19:40:41;;;;;;;3.40;3.10;;;;;;;;;;12294341;28;20051;-80
2022/04/13 19:46:43;;;;;;;4.05;2.95;;;;;;;;;;12310789;28;20046;-79
2022/04/13 19:52:45;;;;;;;6.10;3.73;;;;;;;;;;12304924;28;20039;-79
2022/04/13 19:58:47;;;;;;;2.93;2.40;;;;;;;;;;12308143;28;20035;-78
2022/04/13 20:04:49;;;;;;;3.70;2.77;;;;;;;;;;12307932;28;20043;-78
2022/04/13 20:10:50;;;;;;;3.40;3.03;;;;;;;;;;12290714;28;20039;-79
2022/04/13 20:16:52;;;;;;;3.27;2.57;;;;;;;;;;12290479;28;20294;-76
2022/04/13 20:22:54;;;;;;;2.90;2.50;;;;;;;;;;12307352;28;20039;-77
2022/04/13 20:28:56;;;;;;;2.60;2.15;;;;;;;;;;12306637;28;20066;-78
2022/04/13 20:34:58;;;;;;;6.55;5.35;;;;;;;;;;12290114;28;20365;-78
2022/04/13 20:40:59;;;;;;;5.67;4.87;;;;;;;;;;12289684;28;20055;-78
2022/04/13 20:47:01;;;;;;;4.60;3.70;;;;;;;;;;12306173;28;20031;-78
2022/04/13 20:53:03;;;;;;;8.53;6.23;;;;;;;;;;12306405;28;20038;-78
2022/04/13 20:59:05;;;;;;;6.23;4.97;;;;;;;;;;12305736;28;20291;-78
2022/04/13 21:05:07;;;;;;;12.88;4.57;;;;;;;;;;12306509;28;20043;-80
2022/04/13 21:11:09;;;;;;;5.13;4.50;;;;;;;;;;12287644;28;20035;-78
2022/04/13 21:17:11;;;;;;;4.60;4.20;;;;;;;;;;12305130;28;20035;-78
2022/04/13 21:23:12;;;;;;;3.95;3.63;;;;;;;;;;12305095;28;20047;-78
2022/04/13 21:29:16;;;;;;;5.70;5.20;;;;;;;;;;12301336;28;20504;-78
2022/04/13 21:35:18;;;;;;;5.50;5.00;;;;;;;;;;12287840;28;20533;-78
2022/04/13 21:41:20;;;;;;;5.57;3.97;;;;;;;;;;12302588;28;20075;-78
2022/04/13 21:47:21;;;;;;;5.40;4.90;;;;;;;;;;12284856;28;20031;-78
2022/04/13 21:53:23;;;;;;;7.17;6.17;;;;;;;;;;12293421;28;20041;-78
2022/04/13 21:59:25;;;;;;;5.80;5.10;;;;;;;;;;12288206;28;20043;-78
2022/04/13 22:05:27;;;;;;;6.00;5.40;;;;;;;;;;12284836;28;20054;-78
2022/04/13 22:11:28;;;;;;;6.40;5.80;;;;;;;;;;12300891;28;20039;-78
2022/04/13 22:17:30;;;;;;;6.80;6.15;;;;;;;;;;12300549;28;20066;-80
2022/04/13 22:23:33;;;;;;;7.20;6.50;;;;;;;;;;12283312;29;20039;-78
2022/04/13 22:29:34;;;;;;;7.90;7.10;;;;;;;;;;12283180;28;20031;-78
2022/04/13 22:35:36;;;;;;;8.68;7.43;;;;;;;;;;12283442;28;20047;-78
2022/04/13 22:41:38;;;;;;;8.13;7.40;;;;;;;;;;12254618;28;1377340;-78
2022/04/13 22:47:40;;;;;;;9.05;8.15;;;;;;;;;;12284305;28;20100;-78
2022/04/13 22:53:42;;;;;;;8.97;8.27;;;;;;;;;;12284271;29;20046;-78
2022/04/13 22:59:44;;;;;;;7.35;6.82;;;;;;;;;;12284216;28;20039;-78
2022/04/13 23:05:45;;;;;;;8.90;8.10;;;;;;;;;;12300918;28;20047;-79
2022/04/13 23:11:47;;;;;;;9.00;8.20;;;;;;;;;;12298169;28;20493;-78
2022/04/13 23:17:49;;;;;;;8.25;7.50;;;;;;;;;;12283860;28;20043;-79
2022/04/13 23:23:51;;;;;;;8.20;7.50;;;;;;;;;;12283538;29;20393;-79
2022/04/13 23:29:56;;;;;;;8.85;7.90;;;;;;;;;;12283380;28;20043;-79
2022/04/13 23:35:58;;;;;;;8.88;7.97;;;;;;;;;;12283141;28;20039;-79
2022/04/13 23:42:00;;;;;;;9.60;8.63;;;;;;;;;;12283135;28;20059;-79
2022/04/13 23:48:01;;;;;;;10.20;9.30;;;;;;;;;;12282805;28;20031;-79
2022/04/13 23:54:03;;;;;;;11.18;10.00;;;;;;;;;;12282594;29;20031;-79
